Relatrios de METAR prximas

 

LPAR - Alverca, Portugal
Distance from station: S 38km
Actualizado: 02/12/2022 17:00
NO Actual
Few Clouds
Few Clouds
 Vento de NE
Vento: NE 7 km/h
Temperatura: 14°C
Ponto de Orvalho: 9°C
Humidade: 72%
Barmetro: 1009 hPa
Nuvens: Few Clouds
Visibilidade: 10 km
Cloud details: Few Clouds 1067 m
2022/12/02 17:00 LPAR 021700Z 05004KT 9999 FEW035 14/09 Q1009
LPPT - Lisbon/Portela, Portugal
Distance from station: S 52km
Actualizado: 02/12/2022 22:00
Cu Limpo
Cu Limpo
 Vento de ENE
Vento: ENE 7 km/h
Temperatura: 10°C
ndice Frio: 9°C
Ponto de Orvalho: 8°C
Humidade: 88%
Barmetro: 1009 hPa
Resumo: Cu Limpo
Visibilidade: greater than 10 km
2022/12/02 22:00 LPPT 022200Z 06004KT CAVOK 10/08 Q1009
 
LPST - Sintra/Granja (a, Portugal
Distance from station: SSO 53km
Actualizado: 30/11/2022 17:00
NO Actual
Parc. Nublado
Parc. Nublado
 Vento de NO
Vento: NO 11 km/h
Temperatura: 15°C
Ponto de Orvalho: 15°C
Humidade: 100%
Barmetro: 1011 hPa
Nuvens: Parc. Nublado
Visibilidade: 8 km
Cloud details: Parc. Nublado 244 m
Parc. Nublado 549 m
2022/11/30 17:00 LPST 301700Z 31006KT 280V340 8000 SCT008 SCT018 15/15 Q1011
LPMT - Montijo (por-Afb, Portugal
Distance from station: S 59km
Actualizado: 02/12/2022 22:00
Cu Limpo
Cu Limpo
 Vento de varies
Vento: varies 4 km/h
Temperatura: 8°C
Ponto de Orvalho: 7°C
Humidade: 93%
Barmetro: 1008 hPa
Resumo: Cu Limpo
Visibilidade: greater than 10 km
2022/12/02 22:00 LPMT 022200Z VRB02KT CAVOK 08/07 Q1008
 
LPCS - Cascais, Portugal
Distance from station: SSO 63km
Actualizado: 02/12/2022 21:00
NO Actual
Cu Limpo
Cu Limpo
 Vento de ENE
Vento: ENE 11 km/h
Temperatura: 11°C
Ponto de Orvalho: 8°C
Humidade: 82%
Barmetro: 1008 hPa
Resumo: Cu Limpo
Visibilidade: greater than 10 km
2022/12/02 21:00 LPCS 022100Z 06006KT CAVOK 11/08 Q1008
LPMR - Monte Real(Por-A, Portugal
Distance from station: N 67km
Actualizado: 02/12/2022 22:00
Cu Limpo
Cu Limpo
 Vento de SSE
Vento: SSE 11 km/h
Temperatura: 10°C
ndice Frio: 8°C
Ponto de Orvalho: 6°C
Humidade: 76%
Barmetro: 1009 hPa
Resumo: Cu Limpo
Visibilidade: greater than 10 km
2022/12/02 22:00 LPMR 022200Z 16006KT CAVOK 10/06 Q1009